This is the latest recevied weather packets stored in our database for station/object YO6LRV-3. If no packets are shown the sender has not sent any weather packets the latest 1 day(s).
| Time | Temp. | Humidity | Pressure | Rain* | Wind** | Luminosity | Snow |
|---|---|---|---|---|---|---|---|
| 1778097974 | 20.56° C | 37% | 1012.5 hPa | - | - | - | - |
| 1778097074 | 21.11° C | 36% | 1012.4 hPa | - | - | - | - |
| 1778096174 | 21.11° C | 35% | 1012.3 hPa | - | - | - | - |
| 1778094376 | 21.67° C | 35% | 1012.1 hPa | - | - | - | - |
| 1778093476 | 21.67° C | 34% | 1012 hPa | - | - | - | - |
| 1778088075 | 23.89° C | 31% | 1011.1 hPa | - | - | - | - |
| 1778087175 | 24.44° C | 31% | 1011.1 hPa | - | - | - | - |
| 1778086275 | 24.44° C | 31% | 1011 hPa | - | - | - | - |
| 1778082674 | 26.11° C | 32% | 1010.9 hPa | - | - | - | - |
| 1778081774 | 26.67° C | 31% | 1011 hPa | - | - | - | - |
| 1778079974 | 27.22° C | 31% | 1011 hPa | - | - | - | - |
| 1778079067 | 28.33° C | 29% | 1011.2 hPa | - | - | - | - |
| 1778073673 | 30.56° C | 26% | 1011.5 hPa | - | - | - | - |
| 1778071875 | 31.67° C | 25% | 1011.7 hPa | - | - | - | - |
| 1778070975 | 32.22° C | 25% | 1011.8 hPa | - | - | - | - |
| 1778065574 | 30° C | 30% | 1012.2 hPa | - | - | - | - |
| 1778064674 | 29.44° C | 31% | 1013 hPa | - | - | - | - |
| 1778063774 | 28.33° C | 32% | 1013.2 hPa | - | - | - | - |
| 1778059273 | 22.22° C | 42% | 1013.6 hPa | - | - | - | - |
| 1778057473 | 21.11° C | 42% | 1013.7 hPa | - | - | - | - |
| 1778056573 | 20.56° C | 44% | 1013.7 hPa | - | - | - | - |
| 1778052972 | 18.33° C | 44% | 1013.7 hPa | - | - | - | - |
| 1778052072 | 17.78° C | 42% | 1013.7 hPa | - | - | - | - |
| 1778049374 | 16.67° C | 45% | 1013.6 hPa | - | - | - | - |
| 1778048474 | 16.11° C | 46% | 1013.6 hPa | - | - | - | - |
* Rain since midnight (hover to see other rain measurements)
** Current wind speed in m/s (hover to see current wind gust speed)